sensor_id;sensor_type;location;lat;lon;timestamp;P1;durP1;ratioP1;P2;durP2;ratioP2
55720;SDS011;41626;53.098;6.168;2022-11-12T00:00:26;13.85;;;10.38;;
55720;SDS011;41626;53.098;6.168;2022-11-12T00:02:51;14.35;;;11.07;;
55720;SDS011;41626;53.098;6.168;2022-11-12T00:05:17;18.33;;;10.95;;
55720;SDS011;41626;53.098;6.168;2022-11-12T00:07:42;14.07;;;10.45;;
55720;SDS011;41626;53.098;6.168;2022-11-12T00:10:08;13.07;;;10.52;;
55720;SDS011;41626;53.098;6.168;2022-11-12T00:12:34;11.57;;;10.00;;
55720;SDS011;41626;53.098;6.168;2022-11-12T00:14:59;15.15;;;10.15;;
55720;SDS011;41626;53.098;6.168;2022-11-12T00:17:25;14.93;;;10.65;;
55720;SDS011;41626;53.098;6.168;2022-11-12T00:19:51;14.30;;;9.40;;
55720;SDS011;41626;53.098;6.168;2022-11-12T00:22:18;15.82;;;11.68;;
55720;SDS011;41626;53.098;6.168;2022-11-12T00:24:44;12.65;;;8.77;;
55720;SDS011;41626;53.098;6.168;2022-11-12T00:27:09;11.95;;;10.25;;
55720;SDS011;41626;53.098;6.168;2022-11-12T00:29:35;13.15;;;10.50;;
55720;SDS011;41626;53.098;6.168;2022-11-12T00:32:03;15.95;;;10.52;;
55720;SDS011;41626;53.098;6.168;2022-11-12T00:34:30;14.23;;;10.25;;
55720;SDS011;41626;53.098;6.168;2022-11-12T00:36:56;17.08;;;11.05;;
55720;SDS011;41626;53.098;6.168;2022-11-12T00:39:22;14.32;;;10.50;;
55720;SDS011;41626;53.098;6.168;2022-11-12T00:41:47;14.82;;;11.75;;
55720;SDS011;41626;53.098;6.168;2022-11-12T00:44:13;16.23;;;11.70;;
55720;SDS011;41626;53.098;6.168;2022-11-12T00:46:39;16.13;;;12.20;;
55720;SDS011;41626;53.098;6.168;2022-11-12T00:49:04;12.65;;;9.45;;
55720;SDS011;41626;53.098;6.168;2022-11-12T00:51:30;14.90;;;8.80;;
55720;SDS011;41626;53.098;6.168;2022-11-12T00:53:56;13.98;;;10.93;;
55720;SDS011;41626;53.098;6.168;2022-11-12T00:56:21;16.27;;;11.30;;
55720;SDS011;41626;53.098;6.168;2022-11-12T00:58:47;17.30;;;12.07;;
55720;SDS011;41626;53.098;6.168;2022-11-12T01:01:13;16.33;;;10.27;;
55720;SDS011;41626;53.098;6.168;2022-11-12T01:03:40;18.55;;;12.05;;
55720;SDS011;41626;53.098;6.168;2022-11-12T01:06:07;17.05;;;12.07;;
55720;SDS011;41626;53.098;6.168;2022-11-12T01:08:35;16.52;;;12.32;;
55720;SDS011;41626;53.098;6.168;2022-11-12T01:11:04;12.15;;;10.30;;
55720;SDS011;41626;53.098;6.168;2022-11-12T01:13:32;20.00;;;10.55;;
55720;SDS011;41626;53.098;6.168;2022-11-12T01:15:58;17.02;;;12.25;;
55720;SDS011;41626;53.098;6.168;2022-11-12T01:18:23;17.63;;;12.20;;
55720;SDS011;41626;53.098;6.168;2022-11-12T01:20:49;18.75;;;12.20;;
55720;SDS011;41626;53.098;6.168;2022-11-12T01:23:14;16.10;;;11.60;;
55720;SDS011;41626;53.098;6.168;2022-11-12T01:25:40;19.48;;;12.70;;
55720;SDS011;41626;53.098;6.168;2022-11-12T01:28:06;17.27;;;12.32;;
55720;SDS011;41626;53.098;6.168;2022-11-12T01:30:31;16.23;;;9.95;;
55720;SDS011;41626;53.098;6.168;2022-11-12T01:32:57;13.50;;;10.98;;
55720;SDS011;41626;53.098;6.168;2022-11-12T01:35:22;14.30;;;10.85;;
55720;SDS011;41626;53.098;6.168;2022-11-12T01:37:48;14.80;;;11.80;;
55720;SDS011;41626;53.098;6.168;2022-11-12T01:40:14;16.27;;;13.15;;
55720;SDS011;41626;53.098;6.168;2022-11-12T01:42:40;15.98;;;11.85;;
55720;SDS011;41626;53.098;6.168;2022-11-12T01:45:11;16.63;;;13.27;;
55720;SDS011;41626;53.098;6.168;2022-11-12T01:47:40;15.73;;;11.50;;
55720;SDS011;41626;53.098;6.168;2022-11-12T01:50:28;17.05;;;11.10;;
55720;SDS011;41626;53.098;6.168;2022-11-12T01:53:00;20.30;;;12.55;;
55720;SDS011;41626;53.098;6.168;2022-11-12T01:55:32;18.95;;;11.57;;
55720;SDS011;41626;53.098;6.168;2022-11-12T02:00:30;18.73;;;12.38;;
55720;SDS011;41626;53.098;6.168;2022-11-12T02:02:57;13.35;;;10.88;;
55720;SDS011;41626;53.098;6.168;2022-11-12T02:05:26;18.13;;;12.82;;
55720;SDS011;41626;53.098;6.168;2022-11-12T02:07:53;20.02;;;12.70;;
55720;SDS011;41626;53.098;6.168;2022-11-12T02:10:21;17.40;;;12.70;;
55720;SDS011;41626;53.098;6.168;2022-11-12T02:12:47;15.65;;;11.95;;
55720;SDS011;41626;53.098;6.168;2022-11-12T02:15:34;14.27;;;11.30;;
55720;SDS011;41626;53.098;6.168;2022-11-12T02:18:01;19.23;;;12.43;;
55720;SDS011;41626;53.098;6.168;2022-11-12T02:20:27;22.23;;;14.57;;
55720;SDS011;41626;53.098;6.168;2022-11-12T02:23:01;18.00;;;11.88;;
55720;SDS011;41626;53.098;6.168;2022-11-12T02:25:27;15.25;;;11.45;;
55720;SDS011;41626;53.098;6.168;2022-11-12T02:27:54;19.67;;;13.27;;
55720;SDS011;41626;53.098;6.168;2022-11-12T02:30:31;16.25;;;12.73;;
55720;SDS011;41626;53.098;6.168;2022-11-12T02:32:56;18.85;;;12.68;;
55720;SDS011;41626;53.098;6.168;2022-11-12T02:35:22;21.45;;;13.93;;
55720;SDS011;41626;53.098;6.168;2022-11-12T02:37:48;17.48;;;12.50;;
55720;SDS011;41626;53.098;6.168;2022-11-12T02:40:14;17.88;;;12.55;;
55720;SDS011;41626;53.098;6.168;2022-11-12T02:42:39;16.17;;;12.52;;
55720;SDS011;41626;53.098;6.168;2022-11-12T02:45:05;21.02;;;13.65;;
55720;SDS011;41626;53.098;6.168;2022-11-12T02:47:31;21.50;;;14.20;;
55720;SDS011;41626;53.098;6.168;2022-11-12T02:49:56;16.92;;;13.10;;
55720;SDS011;41626;53.098;6.168;2022-11-12T02:52:22;16.80;;;14.05;;
55720;SDS011;41626;53.098;6.168;2022-11-12T02:54:48;18.33;;;13.73;;
55720;SDS011;41626;53.098;6.168;2022-11-12T02:57:13;16.05;;;12.07;;
55720;SDS011;41626;53.098;6.168;2022-11-12T02:59:39;16.83;;;12.20;;
55720;SDS011;41626;53.098;6.168;2022-11-12T03:02:04;16.98;;;13.70;;
55720;SDS011;41626;53.098;6.168;2022-11-12T03:04:30;25.88;;;11.93;;
55720;SDS011;41626;53.098;6.168;2022-11-12T03:06:56;17.40;;;11.82;;
55720;SDS011;41626;53.098;6.168;2022-11-12T03:09:21;19.27;;;11.13;;
55720;SDS011;41626;53.098;6.168;2022-11-12T03:11:47;19.23;;;12.02;;
55720;SDS011;41626;53.098;6.168;2022-11-12T03:14:13;14.65;;;11.70;;
55720;SDS011;41626;53.098;6.168;2022-11-12T03:16:39;15.65;;;12.13;;
55720;SDS011;41626;53.098;6.168;2022-11-12T03:19:04;21.60;;;12.90;;
55720;SDS011;41626;53.098;6.168;2022-11-12T03:21:30;16.42;;;11.55;;
55720;SDS011;41626;53.098;6.168;2022-11-12T03:23:56;22.20;;;12.48;;
55720;SDS011;41626;53.098;6.168;2022-11-12T03:26:21;16.05;;;13.18;;
55720;SDS011;41626;53.098;6.168;2022-11-12T03:28:47;14.57;;;11.90;;
55720;SDS011;41626;53.098;6.168;2022-11-12T03:31:14;16.27;;;13.40;;
55720;SDS011;41626;53.098;6.168;2022-11-12T03:33:40;18.30;;;12.18;;
55720;SDS011;41626;53.098;6.168;2022-11-12T03:36:06;14.68;;;11.85;;
55720;SDS011;41626;53.098;6.168;2022-11-12T03:38:31;17.85;;;13.75;;
55720;SDS011;41626;53.098;6.168;2022-11-12T03:40:57;14.52;;;10.82;;
55720;SDS011;41626;53.098;6.168;2022-11-12T03:43:23;16.25;;;11.88;;
55720;SDS011;41626;53.098;6.168;2022-11-12T03:45:48;21.60;;;13.07;;
55720;SDS011;41626;53.098;6.168;2022-11-12T03:48:14;15.50;;;11.02;;
55720;SDS011;41626;53.098;6.168;2022-11-12T03:50:40;14.25;;;12.38;;
55720;SDS011;41626;53.098;6.168;2022-11-12T03:53:05;17.60;;;13.95;;
55720;SDS011;41626;53.098;6.168;2022-11-12T03:55:32;17.02;;;12.85;;
55720;SDS011;41626;53.098;6.168;2022-11-12T03:57:57;16.30;;;12.65;;
55720;SDS011;41626;53.098;6.168;2022-11-12T04:00:24;19.85;;;13.52;;
55720;SDS011;41626;53.098;6.168;2022-11-12T04:02:51;19.13;;;13.77;;
55720;SDS011;41626;53.098;6.168;2022-11-12T04:05:17;22.33;;;12.20;;
55720;SDS011;41626;53.098;6.168;2022-11-12T04:08:02;14.15;;;11.98;;
55720;SDS011;41626;53.098;6.168;2022-11-12T04:10:54;20.25;;;14.50;;
55720;SDS011;41626;53.098;6.168;2022-11-12T04:13:20;14.32;;;11.00;;
55720;SDS011;41626;53.098;6.168;2022-11-12T04:15:51;20.48;;;14.15;;
55720;SDS011;41626;53.098;6.168;2022-11-12T04:18:47;20.00;;;12.88;;
55720;SDS011;41626;53.098;6.168;2022-11-12T04:21:36;18.85;;;13.35;;
55720;SDS011;41626;53.098;6.168;2022-11-12T04:24:25;13.20;;;10.73;;
55720;SDS011;41626;53.098;6.168;2022-11-12T04:27:18;48.83;;;16.70;;
55720;SDS011;41626;53.098;6.168;2022-11-12T04:29:51;20.23;;;14.68;;
55720;SDS011;41626;53.098;6.168;2022-11-12T04:32:37;15.90;;;12.98;;
55720;SDS011;41626;53.098;6.168;2022-11-12T04:35:05;17.15;;;13.32;;
55720;SDS011;41626;53.098;6.168;2022-11-12T04:37:32;18.38;;;15.07;;
55720;SDS011;41626;53.098;6.168;2022-11-12T04:40:15;24.02;;;15.23;;
55720;SDS011;41626;53.098;6.168;2022-11-12T04:43:04;19.70;;;14.90;;
55720;SDS011;41626;53.098;6.168;2022-11-12T04:45:50;25.70;;;14.98;;
55720;SDS011;41626;53.098;6.168;2022-11-12T04:48:18;65.57;;;18.00;;
55720;SDS011;41626;53.098;6.168;2022-11-12T04:50:46;30.88;;;17.27;;
55720;SDS011;41626;53.098;6.168;2022-11-12T04:53:14;47.55;;;18.48;;
55720;SDS011;41626;53.098;6.168;2022-11-12T04:55:40;66.72;;;19.90;;
55720;SDS011;41626;53.098;6.168;2022-11-12T04:58:06;36.55;;;18.50;;
55720;SDS011;41626;53.098;6.168;2022-11-12T05:00:31;33.78;;;18.13;;
55720;SDS011;41626;53.098;6.168;2022-11-12T05:02:57;55.65;;;19.00;;
55720;SDS011;41626;53.098;6.168;2022-11-12T05:05:23;87.13;;;23.02;;
55720;SDS011;41626;53.098;6.168;2022-11-12T05:07:48;113.90;;;24.83;;
55720;SDS011;41626;53.098;6.168;2022-11-12T05:10:14;104.45;;;23.05;;
55720;SDS011;41626;53.098;6.168;2022-11-12T05:12:40;78.78;;;22.63;;
55720;SDS011;41626;53.098;6.168;2022-11-12T05:15:07;101.50;;;24.30;;
55720;SDS011;41626;53.098;6.168;2022-11-12T05:17:34;97.68;;;21.52;;
55720;SDS011;41626;53.098;6.168;2022-11-12T05:19:59;103.03;;;22.52;;
55720;SDS011;41626;53.098;6.168;2022-11-12T05:22:25;163.48;;;27.08;;
55720;SDS011;41626;53.098;6.168;2022-11-12T05:24:50;92.28;;;22.83;;
55720;SDS011;41626;53.098;6.168;2022-11-12T05:27:19;134.35;;;24.92;;
55720;SDS011;41626;53.098;6.168;2022-11-12T05:29:45;92.53;;;23.05;;
55720;SDS011;41626;53.098;6.168;2022-11-12T05:32:12;98.25;;;26.00;;
55720;SDS011;41626;53.098;6.168;2022-11-12T05:34:40;103.60;;;27.75;;
55720;SDS011;41626;53.098;6.168;2022-11-12T05:37:06;101.05;;;28.88;;
55720;SDS011;41626;53.098;6.168;2022-11-12T05:39:33;65.15;;;27.27;;
55720;SDS011;41626;53.098;6.168;2022-11-12T05:41:59;160.48;;;35.65;;
55720;SDS011;41626;53.098;6.168;2022-11-12T05:44:24;119.97;;;32.83;;
55720;SDS011;41626;53.098;6.168;2022-11-12T05:46:50;151.05;;;33.85;;
55720;SDS011;41626;53.098;6.168;2022-11-12T05:49:16;184.85;;;40.53;;
55720;SDS011;41626;53.098;6.168;2022-11-12T05:51:42;160.43;;;40.28;;
55720;SDS011;41626;53.098;6.168;2022-11-12T05:54:08;185.18;;;37.67;;
55720;SDS011;41626;53.098;6.168;2022-11-12T05:56:35;116.70;;;34.20;;
55720;SDS011;41626;53.098;6.168;2022-11-12T05:59:02;119.22;;;34.33;;
55720;SDS011;41626;53.098;6.168;2022-11-12T06:01:28;114.82;;;30.83;;
55720;SDS011;41626;53.098;6.168;2022-11-12T06:03:54;76.50;;;26.98;;
55720;SDS011;41626;53.098;6.168;2022-11-12T06:06:20;75.13;;;29.20;;
55720;SDS011;41626;53.098;6.168;2022-11-12T06:08:46;67.07;;;26.08;;
55720;SDS011;41626;53.098;6.168;2022-11-12T06:11:11;65.07;;;24.65;;
55720;SDS011;41626;53.098;6.168;2022-11-12T06:13:37;63.42;;;26.83;;
55720;SDS011;41626;53.098;6.168;2022-11-12T06:16:03;72.80;;;25.88;;
55720;SDS011;41626;53.098;6.168;2022-11-12T06:18:29;74.20;;;26.92;;
55720;SDS011;41626;53.098;6.168;2022-11-12T06:21:05;80.68;;;24.77;;
55720;SDS011;41626;53.098;6.168;2022-11-12T06:23:46;78.13;;;25.33;;
55720;SDS011;41626;53.098;6.168;2022-11-12T06:26:16;57.67;;;23.05;;
55720;SDS011;41626;53.098;6.168;2022-11-12T06:28:42;63.40;;;23.67;;
55720;SDS011;41626;53.098;6.168;2022-11-12T06:31:08;112.15;;;30.00;;
55720;SDS011;41626;53.098;6.168;2022-11-12T06:33:33;62.17;;;23.10;;
55720;SDS011;41626;53.098;6.168;2022-11-12T06:35:59;85.05;;;22.67;;
55720;SDS011;41626;53.098;6.168;2022-11-12T06:38:29;46.78;;;23.42;;
55720;SDS011;41626;53.098;6.168;2022-11-12T06:40:56;75.05;;;25.00;;
55720;SDS011;41626;53.098;6.168;2022-11-12T06:43:22;60.70;;;21.95;;
55720;SDS011;41626;53.098;6.168;2022-11-12T06:45:48;60.70;;;25.63;;
55720;SDS011;41626;53.098;6.168;2022-11-12T06:48:14;78.28;;;26.17;;
55720;SDS011;41626;53.098;6.168;2022-11-12T06:50:39;63.75;;;26.73;;
55720;SDS011;41626;53.098;6.168;2022-11-12T06:53:05;104.85;;;28.70;;
55720;SDS011;41626;53.098;6.168;2022-11-12T06:55:30;60.72;;;23.55;;
55720;SDS011;41626;53.098;6.168;2022-11-12T06:57:56;75.55;;;24.98;;
55720;SDS011;41626;53.098;6.168;2022-11-12T07:00:22;92.13;;;28.33;;
55720;SDS011;41626;53.098;6.168;2022-11-12T07:02:47;73.63;;;31.13;;
55720;SDS011;41626;53.098;6.168;2022-11-12T07:05:14;61.20;;;25.80;;
55720;SDS011;41626;53.098;6.168;2022-11-12T07:07:44;87.65;;;30.58;;
55720;SDS011;41626;53.098;6.168;2022-11-12T07:10:10;78.18;;;26.67;;
55720;SDS011;41626;53.098;6.168;2022-11-12T07:12:35;103.97;;;33.35;;
55720;SDS011;41626;53.098;6.168;2022-11-12T07:15:01;111.43;;;33.30;;
55720;SDS011;41626;53.098;6.168;2022-11-12T07:17:27;90.60;;;27.75;;
55720;SDS011;41626;53.098;6.168;2022-11-12T07:19:52;58.95;;;28.00;;
55720;SDS011;41626;53.098;6.168;2022-11-12T07:22:18;78.32;;;28.10;;
55720;SDS011;41626;53.098;6.168;2022-11-12T07:24:43;100.22;;;29.85;;
55720;SDS011;41626;53.098;6.168;2022-11-12T07:27:09;71.28;;;28.98;;
55720;SDS011;41626;53.098;6.168;2022-11-12T07:29:34;94.32;;;31.55;;
55720;SDS011;41626;53.098;6.168;2022-11-12T07:32:00;110.28;;;30.35;;
55720;SDS011;41626;53.098;6.168;2022-11-12T07:34:25;125.18;;;32.47;;
55720;SDS011;41626;53.098;6.168;2022-11-12T07:36:51;112.97;;;32.40;;
55720;SDS011;41626;53.098;6.168;2022-11-12T07:39:17;114.38;;;29.42;;
55720;SDS011;41626;53.098;6.168;2022-11-12T07:41:42;191.20;;;38.53;;
55720;SDS011;41626;53.098;6.168;2022-11-12T07:44:08;75.53;;;27.42;;
55720;SDS011;41626;53.098;6.168;2022-11-12T07:46:34;95.78;;;28.70;;
55720;SDS011;41626;53.098;6.168;2022-11-12T07:49:00;122.55;;;31.85;;
55720;SDS011;41626;53.098;6.168;2022-11-12T07:51:27;100.40;;;30.58;;
55720;SDS011;41626;53.098;6.168;2022-11-12T07:53:54;103.47;;;33.22;;
55720;SDS011;41626;53.098;6.168;2022-11-12T07:56:22;80.97;;;34.00;;
55720;SDS011;41626;53.098;6.168;2022-11-12T07:58:49;88.65;;;31.20;;
55720;SDS011;41626;53.098;6.168;2022-11-12T08:01:22;118.50;;;33.45;;
55720;SDS011;41626;53.098;6.168;2022-11-12T08:03:56;78.25;;;33.63;;
55720;SDS011;41626;53.098;6.168;2022-11-12T08:06:22;79.45;;;29.98;;
55720;SDS011;41626;53.098;6.168;2022-11-12T08:08:51;86.13;;;33.47;;
55720;SDS011;41626;53.098;6.168;2022-11-12T08:11:17;96.72;;;34.00;;
55720;SDS011;41626;53.098;6.168;2022-11-12T08:13:44;119.22;;;38.28;;
55720;SDS011;41626;53.098;6.168;2022-11-12T08:16:09;119.93;;;35.75;;
55720;SDS011;41626;53.098;6.168;2022-11-12T08:18:35;111.25;;;38.05;;
55720;SDS011;41626;53.098;6.168;2022-11-12T08:21:01;72.00;;;33.83;;
55720;SDS011;41626;53.098;6.168;2022-11-12T08:23:28;99.55;;;41.05;;
55720;SDS011;41626;53.098;6.168;2022-11-12T08:25:57;168.98;;;40.70;;
55720;SDS011;41626;53.098;6.168;2022-11-12T08:28:24;115.80;;;38.50;;
55720;SDS011;41626;53.098;6.168;2022-11-12T08:30:50;95.30;;;36.55;;
55720;SDS011;41626;53.098;6.168;2022-11-12T08:33:16;95.68;;;38.15;;
55720;SDS011;41626;53.098;6.168;2022-11-12T08:35:41;111.15;;;42.08;;
55720;SDS011;41626;53.098;6.168;2022-11-12T08:38:07;125.63;;;40.38;;
55720;SDS011;41626;53.098;6.168;2022-11-12T08:40:34;93.90;;;38.05;;
55720;SDS011;41626;53.098;6.168;2022-11-12T08:43:04;101.97;;;39.78;;
55720;SDS011;41626;53.098;6.168;2022-11-12T08:45:32;148.07;;;43.65;;
55720;SDS011;41626;53.098;6.168;2022-11-12T08:48:00;142.85;;;41.88;;
55720;SDS011;41626;53.098;6.168;2022-11-12T08:50:26;156.52;;;41.03;;
55720;SDS011;41626;53.098;6.168;2022-11-12T08:52:53;104.22;;;37.42;;
55720;SDS011;41626;53.098;6.168;2022-11-12T08:55:24;147.07;;;43.47;;
55720;SDS011;41626;53.098;6.168;2022-11-12T08:57:49;155.93;;;45.03;;
55720;SDS011;41626;53.098;6.168;2022-11-12T09:00:15;147.77;;;40.72;;
55720;SDS011;41626;53.098;6.168;2022-11-12T09:02:41;181.05;;;46.15;;
55720;SDS011;41626;53.098;6.168;2022-11-12T09:05:07;134.07;;;41.13;;
55720;SDS011;41626;53.098;6.168;2022-11-12T09:07:33;164.75;;;48.70;;
55720;SDS011;41626;53.098;6.168;2022-11-12T09:09:59;150.70;;;45.90;;
55720;SDS011;41626;53.098;6.168;2022-11-12T09:12:25;188.80;;;46.45;;
55720;SDS011;41626;53.098;6.168;2022-11-12T09:14:52;130.32;;;45.65;;
55720;SDS011;41626;53.098;6.168;2022-11-12T09:17:20;174.48;;;48.13;;
55720;SDS011;41626;53.098;6.168;2022-11-12T09:19:45;115.15;;;40.70;;
55720;SDS011;41626;53.098;6.168;2022-11-12T09:22:11;118.03;;;38.05;;
55720;SDS011;41626;53.098;6.168;2022-11-12T09:24:37;149.05;;;37.65;;
55720;SDS011;41626;53.098;6.168;2022-11-12T09:27:02;131.35;;;34.65;;
55720;SDS011;41626;53.098;6.168;2022-11-12T09:29:28;117.70;;;34.38;;
55720;SDS011;41626;53.098;6.168;2022-11-12T09:31:53;101.25;;;30.13;;
55720;SDS011;41626;53.098;6.168;2022-11-12T09:34:19;138.57;;;36.42;;
55720;SDS011;41626;53.098;6.168;2022-11-12T09:36:45;162.45;;;40.10;;
55720;SDS011;41626;53.098;6.168;2022-11-12T09:39:10;171.38;;;36.88;;
55720;SDS011;41626;53.098;6.168;2022-11-12T09:41:37;210.20;;;40.70;;
55720;SDS011;41626;53.098;6.168;2022-11-12T09:47:03;194.30;;;36.95;;
55720;SDS011;41626;53.098;6.168;2022-11-12T09:49:39;137.98;;;33.42;;
55720;SDS011;41626;53.098;6.168;2022-11-12T09:52:12;123.60;;;33.00;;
55720;SDS011;41626;53.098;6.168;2022-11-12T09:54:43;130.93;;;34.67;;
55720;SDS011;41626;53.098;6.168;2022-11-12T09:57:12;112.10;;;34.65;;
55720;SDS011;41626;53.098;6.168;2022-11-12T09:59:39;158.27;;;39.97;;
55720;SDS011;41626;53.098;6.168;2022-11-12T10:10:47;98.10;;;37.13;;
55720;SDS011;41626;53.098;6.168;2022-11-12T10:13:30;105.97;;;35.17;;
55720;SDS011;41626;53.098;6.168;2022-11-12T10:21:34;98.63;;;34.83;;
55720;SDS011;41626;53.098;6.168;2022-11-12T10:24:13;77.82;;;35.00;;
55720;SDS011;41626;53.098;6.168;2022-11-12T10:26:39;97.88;;;37.85;;
55720;SDS011;41626;53.098;6.168;2022-11-12T10:31:52;76.32;;;33.75;;
55720;SDS011;41626;53.098;6.168;2022-11-12T10:34:18;73.93;;;37.95;;
55720;SDS011;41626;53.098;6.168;2022-11-12T10:36:51;77.72;;;31.58;;
55720;SDS011;41626;53.098;6.168;2022-11-12T10:39:37;93.53;;;34.90;;
55720;SDS011;41626;53.098;6.168;2022-11-12T10:42:14;57.90;;;32.25;;
55720;SDS011;41626;53.098;6.168;2022-11-12T10:44:41;73.35;;;34.28;;
55720;SDS011;41626;53.098;6.168;2022-11-12T10:50:01;62.28;;;31.65;;
55720;SDS011;41626;53.098;6.168;2022-11-12T10:52:36;66.22;;;32.88;;
55720;SDS011;41626;53.098;6.168;2022-11-12T10:57:44;66.55;;;30.25;;
55720;SDS011;41626;53.098;6.168;2022-11-12T11:02:48;104.10;;;29.30;;
55720;SDS011;41626;53.098;6.168;2022-11-12T11:05:25;74.47;;;31.92;;
55720;SDS011;41626;53.098;6.168;2022-11-12T11:07:59;70.47;;;29.05;;
55720;SDS011;41626;53.098;6.168;2022-11-12T11:10:28;95.25;;;31.25;;
55720;SDS011;41626;53.098;6.168;2022-11-12T11:13:15;108.80;;;33.85;;
55720;SDS011;41626;53.098;6.168;2022-11-12T11:16:00;73.38;;;29.48;;
55720;SDS011;41626;53.098;6.168;2022-11-12T11:18:34;66.53;;;31.42;;
55720;SDS011;41626;53.098;6.168;2022-11-12T11:23:29;52.05;;;31.45;;
55720;SDS011;41626;53.098;6.168;2022-11-12T11:26:00;43.00;;;27.85;;
55720;SDS011;41626;53.098;6.168;2022-11-12T11:31:27;56.35;;;28.85;;
55720;SDS011;41626;53.098;6.168;2022-11-12T11:34:20;55.50;;;34.03;;
55720;SDS011;41626;53.098;6.168;2022-11-12T11:37:11;52.00;;;32.00;;
55720;SDS011;41626;53.098;6.168;2022-11-12T11:45:20;52.47;;;30.58;;
55720;SDS011;41626;53.098;6.168;2022-11-12T11:50:38;54.45;;;30.38;;
55720;SDS011;41626;53.098;6.168;2022-11-12T11:53:31;44.05;;;31.42;;
55720;SDS011;41626;53.098;6.168;2022-11-12T11:56:18;43.58;;;30.20;;
55720;SDS011;41626;53.098;6.168;2022-11-12T12:10:04;44.40;;;31.42;;
55720;SDS011;41626;53.098;6.168;2022-11-12T12:21:11;43.42;;;30.20;;
55720;SDS011;41626;53.098;6.168;2022-11-12T12:26:30;51.22;;;35.25;;
55720;SDS011;41626;53.098;6.168;2022-11-12T12:31:36;40.50;;;30.83;;
55720;SDS011;41626;53.098;6.168;2022-11-12T12:36:55;39.63;;;30.75;;
55720;SDS011;41626;53.098;6.168;2022-11-12T12:39:45;42.75;;;31.65;;
55720;SDS011;41626;53.098;6.168;2022-11-12T12:42:33;36.05;;;28.17;;
55720;SDS011;41626;53.098;6.168;2022-11-12T12:45:23;41.65;;;28.65;;
55720;SDS011;41626;53.098;6.168;2022-11-12T12:48:02;38.05;;;30.17;;
55720;SDS011;41626;53.098;6.168;2022-11-12T12:50:31;30.13;;;25.65;;
55720;SDS011;41626;53.098;6.168;2022-11-12T12:53:01;33.63;;;26.83;;
55720;SDS011;41626;53.098;6.168;2022-11-12T12:56:00;36.45;;;26.30;;
55720;SDS011;41626;53.098;6.168;2022-11-12T12:58:26;36.33;;;26.63;;
55720;SDS011;41626;53.098;6.168;2022-11-12T13:01:09;36.05;;;27.95;;
55720;SDS011;41626;53.098;6.168;2022-11-12T13:06:28;33.15;;;25.75;;
55720;SDS011;41626;53.098;6.168;2022-11-12T13:16:56;38.20;;;27.88;;
55720;SDS011;41626;53.098;6.168;2022-11-12T13:19:27;35.22;;;27.30;;
55720;SDS011;41626;53.098;6.168;2022-11-12T13:45:40;30.02;;;22.98;;
55720;SDS011;41626;53.098;6.168;2022-11-12T13:48:27;28.33;;;22.20;;
55720;SDS011;41626;53.098;6.168;2022-11-12T13:50:57;27.80;;;23.83;;
55720;SDS011;41626;53.098;6.168;2022-11-12T13:53:29;38.03;;;26.58;;
55720;SDS011;41626;53.098;6.168;2022-11-12T13:55:56;28.52;;;22.95;;
55720;SDS011;41626;53.098;6.168;2022-11-12T13:58:28;26.52;;;22.27;;
55720;SDS011;41626;53.098;6.168;2022-11-12T14:00:58;26.90;;;23.08;;
55720;SDS011;41626;53.098;6.168;2022-11-12T14:06:01;35.95;;;25.75;;
55720;SDS011;41626;53.098;6.168;2022-11-12T14:16:44;26.83;;;22.13;;
55720;SDS011;41626;53.098;6.168;2022-11-12T14:19:34;32.35;;;24.88;;
55720;SDS011;41626;53.098;6.168;2022-11-12T14:22:11;33.05;;;22.90;;
55720;SDS011;41626;53.098;6.168;2022-11-12T14:24:38;42.40;;;24.75;;
55720;SDS011;41626;53.098;6.168;2022-11-12T14:27:04;27.27;;;23.50;;
55720;SDS011;41626;53.098;6.168;2022-11-12T14:32:10;28.58;;;23.38;;
55720;SDS011;41626;53.098;6.168;2022-11-12T14:34:35;27.13;;;21.20;;
55720;SDS011;41626;53.098;6.168;2022-11-12T14:37:01;27.25;;;23.77;;
55720;SDS011;41626;53.098;6.168;2022-11-12T14:39:27;24.90;;;21.15;;
55720;SDS011;41626;53.098;6.168;2022-11-12T14:41:55;30.65;;;24.73;;
55720;SDS011;41626;53.098;6.168;2022-11-12T14:44:23;28.02;;;23.25;;
55720;SDS011;41626;53.098;6.168;2022-11-12T14:46:57;31.00;;;24.17;;
55720;SDS011;41626;53.098;6.168;2022-11-12T14:49:31;34.03;;;26.30;;
55720;SDS011;41626;53.098;6.168;2022-11-12T14:57:19;30.92;;;23.95;;
55720;SDS011;41626;53.098;6.168;2022-11-12T14:59:52;31.42;;;23.77;;
55720;SDS011;41626;53.098;6.168;2022-11-12T15:02:18;28.65;;;23.83;;
55720;SDS011;41626;53.098;6.168;2022-11-12T15:05:00;26.90;;;22.23;;
55720;SDS011;41626;53.098;6.168;2022-11-12T15:07:33;30.92;;;25.95;;
55720;SDS011;41626;53.098;6.168;2022-11-12T15:10:00;26.67;;;23.40;;
55720;SDS011;41626;53.098;6.168;2022-11-12T15:12:45;31.63;;;25.10;;
55720;SDS011;41626;53.098;6.168;2022-11-12T15:15:18;32.45;;;25.92;;
55720;SDS011;41626;53.098;6.168;2022-11-12T15:17:54;34.40;;;25.85;;
55720;SDS011;41626;53.098;6.168;2022-11-12T15:20:25;30.80;;;26.90;;
55720;SDS011;41626;53.098;6.168;2022-11-12T15:22:51;29.77;;;25.20;;
55720;SDS011;41626;53.098;6.168;2022-11-12T15:25:25;39.22;;;31.85;;
55720;SDS011;41626;53.098;6.168;2022-11-12T15:27:51;35.90;;;29.30;;
55720;SDS011;41626;53.098;6.168;2022-11-12T15:38:32;36.78;;;28.25;;
55720;SDS011;41626;53.098;6.168;2022-11-12T15:41:02;35.10;;;28.20;;
55720;SDS011;41626;53.098;6.168;2022-11-12T15:43:31;30.63;;;27.33;;
55720;SDS011;41626;53.098;6.168;2022-11-12T15:45:59;35.92;;;28.67;;
55720;SDS011;41626;53.098;6.168;2022-11-12T15:48:26;29.83;;;26.63;;
55720;SDS011;41626;53.098;6.168;2022-11-12T15:50:51;34.40;;;27.08;;
55720;SDS011;41626;53.098;6.168;2022-11-12T15:53:18;34.40;;;28.17;;
55720;SDS011;41626;53.098;6.168;2022-11-12T15:55:44;37.65;;;29.50;;
55720;SDS011;41626;53.098;6.168;2022-11-12T15:58:17;31.15;;;28.08;;
55720;SDS011;41626;53.098;6.168;2022-11-12T16:00:49;35.13;;;29.70;;
55720;SDS011;41626;53.098;6.168;2022-11-12T16:03:18;36.10;;;31.90;;
55720;SDS011;41626;53.098;6.168;2022-11-12T16:05:46;39.40;;;29.50;;
55720;SDS011;41626;53.098;6.168;2022-11-12T16:08:12;38.20;;;29.80;;
55720;SDS011;41626;53.098;6.168;2022-11-12T16:10:38;31.67;;;27.63;;
55720;SDS011;41626;53.098;6.168;2022-11-12T16:13:06;33.08;;;29.48;;
55720;SDS011;41626;53.098;6.168;2022-11-12T16:15:40;37.75;;;31.58;;
55720;SDS011;41626;53.098;6.168;2022-11-12T16:18:09;35.28;;;28.35;;
55720;SDS011;41626;53.098;6.168;2022-11-12T16:20:38;41.55;;;34.85;;
55720;SDS011;41626;53.098;6.168;2022-11-12T16:23:04;33.30;;;27.55;;
55720;SDS011;41626;53.098;6.168;2022-11-12T16:25:31;36.53;;;28.08;;
55720;SDS011;41626;53.098;6.168;2022-11-12T16:27:59;39.63;;;31.45;;
55720;SDS011;41626;53.098;6.168;2022-11-12T16:30:31;45.60;;;30.70;;
55720;SDS011;41626;53.098;6.168;2022-11-12T16:32:58;49.97;;;39.30;;
55720;SDS011;41626;53.098;6.168;2022-11-12T16:35:24;44.08;;;36.90;;
55720;SDS011;41626;53.098;6.168;2022-11-12T16:37:51;45.85;;;35.88;;
55720;SDS011;41626;53.098;6.168;2022-11-12T16:40:23;42.70;;;34.72;;
55720;SDS011;41626;53.098;6.168;2022-11-12T16:42:50;38.95;;;32.25;;